sensor_id;sensor_type;location;lat;lon;timestamp;temperature;humidity
60868;DHT22;46702;48.370;10.794;2022-10-16T00:00:37;13.00;99.90
60868;DHT22;46702;48.370;10.794;2022-10-16T00:03:05;13.00;99.90
60868;DHT22;46702;48.370;10.794;2022-10-16T00:05:31;12.90;99.90
60868;DHT22;46702;48.370;10.794;2022-10-16T00:07:57;12.90;99.90
60868;DHT22;46702;48.370;10.794;2022-10-16T00:10:23;12.80;99.90
60868;DHT22;46702;48.370;10.794;2022-10-16T00:12:49;12.90;99.90
60868;DHT22;46702;48.370;10.794;2022-10-16T00:15:15;12.90;99.90
60868;DHT22;46702;48.370;10.794;2022-10-16T00:17:41;13.00;99.90
60868;DHT22;46702;48.370;10.794;2022-10-16T00:20:07;13.00;99.90
60868;DHT22;46702;48.370;10.794;2022-10-16T00:22:33;12.90;99.90
60868;DHT22;46702;48.370;10.794;2022-10-16T00:24:59;12.80;99.90
60868;DHT22;46702;48.370;10.794;2022-10-16T00:27:25;12.70;99.90
60868;DHT22;46702;48.370;10.794;2022-10-16T00:29:52;12.70;99.90
60868;DHT22;46702;48.370;10.794;2022-10-16T00:32:19;12.60;99.90
60868;DHT22;46702;48.370;10.794;2022-10-16T00:34:45;12.50;99.90
60868;DHT22;46702;48.370;10.794;2022-10-16T00:37:11;12.60;99.90
60868;DHT22;46702;48.370;10.794;2022-10-16T00:39:37;12.70;99.90
60868;DHT22;46702;48.370;10.794;2022-10-16T00:42:03;12.60;99.90
60868;DHT22;46702;48.370;10.794;2022-10-16T00:44:51;12.70;99.90
60868;DHT22;46702;48.370;10.794;2022-10-16T00:47:42;12.80;99.90
60868;DHT22;46702;48.370;10.794;2022-10-16T00:50:27;12.80;99.90
60868;DHT22;46702;48.370;10.794;2022-10-16T00:52:54;12.80;99.90
60868;DHT22;46702;48.370;10.794;2022-10-16T00:55:20;12.80;99.90
60868;DHT22;46702;48.370;10.794;2022-10-16T00:57:46;12.70;99.90
60868;DHT22;46702;48.370;10.794;2022-10-16T01:00:33;12.80;99.90
60868;DHT22;46702;48.370;10.794;2022-10-16T01:03:00;12.80;99.90
60868;DHT22;46702;48.370;10.794;2022-10-16T01:05:37;12.90;99.90
60868;DHT22;46702;48.370;10.794;2022-10-16T01:10:54;12.90;99.90
60868;DHT22;46702;48.370;10.794;2022-10-16T01:13:35;12.90;99.90
60868;DHT22;46702;48.370;10.794;2022-10-16T01:16:13;12.90;99.90
60868;DHT22;46702;48.370;10.794;2022-10-16T01:18:49;12.80;99.90
60868;DHT22;46702;48.370;10.794;2022-10-16T01:21:24;12.60;99.90
60868;DHT22;46702;48.370;10.794;2022-10-16T01:29:59;12.50;99.90
60868;DHT22;46702;48.370;10.794;2022-10-16T01:35:27;12.30;99.90
60868;DHT22;46702;48.370;10.794;2022-10-16T01:38:43;12.30;99.90
60868;DHT22;46702;48.370;10.794;2022-10-16T01:41:07;12.30;99.90
60868;DHT22;46702;48.370;10.794;2022-10-16T01:43:37;12.30;99.90
60868;DHT22;46702;48.370;10.794;2022-10-16T01:46:05;12.20;99.90
60868;DHT22;46702;48.370;10.794;2022-10-16T01:48:31;12.20;99.90
60868;DHT22;46702;48.370;10.794;2022-10-16T01:51:07;12.30;99.90
60868;DHT22;46702;48.370;10.794;2022-10-16T01:53:37;12.30;99.90
60868;DHT22;46702;48.370;10.794;2022-10-16T01:56:09;12.30;99.90
60868;DHT22;46702;48.370;10.794;2022-10-16T01:58:37;12.40;99.90
60868;DHT22;46702;48.370;10.794;2022-10-16T02:01:05;12.40;99.90
60868;DHT22;46702;48.370;10.794;2022-10-16T02:03:36;12.50;99.90
60868;DHT22;46702;48.370;10.794;2022-10-16T02:06:03;12.30;99.90
60868;DHT22;46702;48.370;10.794;2022-10-16T02:08:30;12.30;99.90
60868;DHT22;46702;48.370;10.794;2022-10-16T02:11:03;12.20;99.90
60868;DHT22;46702;48.370;10.794;2022-10-16T02:13:48;12.20;99.90
60868;DHT22;46702;48.370;10.794;2022-10-16T02:16:16;12.20;99.90
60868;DHT22;46702;48.370;10.794;2022-10-16T02:18:43;12.20;99.90
60868;DHT22;46702;48.370;10.794;2022-10-16T02:21:23;12.20;99.90
60868;DHT22;46702;48.370;10.794;2022-10-16T02:24:04;12.30;99.90
60868;DHT22;46702;48.370;10.794;2022-10-16T02:26:36;12.30;99.90
60868;DHT22;46702;48.370;10.794;2022-10-16T02:29:10;12.30;99.90
60868;DHT22;46702;48.370;10.794;2022-10-16T02:31:42;12.40;99.90
60868;DHT22;46702;48.370;10.794;2022-10-16T02:34:12;12.40;99.90
60868;DHT22;46702;48.370;10.794;2022-10-16T02:36:40;12.40;99.90
60868;DHT22;46702;48.370;10.794;2022-10-16T02:39:07;12.30;99.90
60868;DHT22;46702;48.370;10.794;2022-10-16T02:41:33;12.30;99.90
60868;DHT22;46702;48.370;10.794;2022-10-16T02:44:01;12.30;99.90
60868;DHT22;46702;48.370;10.794;2022-10-16T02:46:26;12.30;99.90
60868;DHT22;46702;48.370;10.794;2022-10-16T02:48:52;12.20;99.90
60868;DHT22;46702;48.370;10.794;2022-10-16T02:51:18;12.20;99.90
60868;DHT22;46702;48.370;10.794;2022-10-16T02:53:44;12.30;99.90
60868;DHT22;46702;48.370;10.794;2022-10-16T02:56:10;12.30;99.90
60868;DHT22;46702;48.370;10.794;2022-10-16T02:58:35;12.40;99.90
60868;DHT22;46702;48.370;10.794;2022-10-16T03:01:01;12.30;99.90
60868;DHT22;46702;48.370;10.794;2022-10-16T03:03:27;12.30;99.90
60868;DHT22;46702;48.370;10.794;2022-10-16T03:05:53;12.40;99.90
60868;DHT22;46702;48.370;10.794;2022-10-16T03:08:22;12.40;99.90
60868;DHT22;46702;48.370;10.794;2022-10-16T03:10:51;12.40;99.90
60868;DHT22;46702;48.370;10.794;2022-10-16T03:13:17;12.50;99.90
60868;DHT22;46702;48.370;10.794;2022-10-16T03:15:46;12.50;99.90
60868;DHT22;46702;48.370;10.794;2022-10-16T03:18:12;12.50;99.90
60868;DHT22;46702;48.370;10.794;2022-10-16T03:20:38;12.60;99.90
60868;DHT22;46702;48.370;10.794;2022-10-16T03:23:04;12.60;99.90
60868;DHT22;46702;48.370;10.794;2022-10-16T03:25:32;12.60;99.90
60868;DHT22;46702;48.370;10.794;2022-10-16T03:27:58;12.60;99.90
60868;DHT22;46702;48.370;10.794;2022-10-16T03:30:24;12.60;99.90
60868;DHT22;46702;48.370;10.794;2022-10-16T03:32:50;12.50;99.90
60868;DHT22;46702;48.370;10.794;2022-10-16T03:35:23;12.50;99.90
60868;DHT22;46702;48.370;10.794;2022-10-16T03:37:49;12.50;99.90
60868;DHT22;46702;48.370;10.794;2022-10-16T03:40:16;12.40;99.90
60868;DHT22;46702;48.370;10.794;2022-10-16T03:42:43;12.30;99.90
60868;DHT22;46702;48.370;10.794;2022-10-16T03:45:10;12.30;99.90
60868;DHT22;46702;48.370;10.794;2022-10-16T03:47:36;12.30;99.90
60868;DHT22;46702;48.370;10.794;2022-10-16T03:50:03;12.30;99.90
60868;DHT22;46702;48.370;10.794;2022-10-16T03:52:30;12.40;99.90
60868;DHT22;46702;48.370;10.794;2022-10-16T03:54:56;12.30;99.90
60868;DHT22;46702;48.370;10.794;2022-10-16T03:57:23;12.40;99.90
60868;DHT22;46702;48.370;10.794;2022-10-16T03:59:49;12.50;99.90
60868;DHT22;46702;48.370;10.794;2022-10-16T04:02:15;12.50;99.90
60868;DHT22;46702;48.370;10.794;2022-10-16T04:04:41;12.50;99.90
60868;DHT22;46702;48.370;10.794;2022-10-16T04:07:07;12.50;99.90
60868;DHT22;46702;48.370;10.794;2022-10-16T04:09:33;12.50;99.90
60868;DHT22;46702;48.370;10.794;2022-10-16T04:11:59;12.50;99.90
60868;DHT22;46702;48.370;10.794;2022-10-16T04:14:25;12.50;99.90
60868;DHT22;46702;48.370;10.794;2022-10-16T04:16:51;12.50;99.90
60868;DHT22;46702;48.370;10.794;2022-10-16T04:19:17;12.50;99.90
60868;DHT22;46702;48.370;10.794;2022-10-16T04:21:44;12.50;99.90
60868;DHT22;46702;48.370;10.794;2022-10-16T04:24:10;12.60;99.90
60868;DHT22;46702;48.370;10.794;2022-10-16T04:26:37;12.50;99.90
60868;DHT22;46702;48.370;10.794;2022-10-16T04:29:03;12.50;99.90
60868;DHT22;46702;48.370;10.794;2022-10-16T04:31:29;12.50;99.90
60868;DHT22;46702;48.370;10.794;2022-10-16T04:33:55;12.50;99.90
60868;DHT22;46702;48.370;10.794;2022-10-16T04:36:21;12.60;99.90
60868;DHT22;46702;48.370;10.794;2022-10-16T04:38:47;12.60;99.90
60868;DHT22;46702;48.370;10.794;2022-10-16T04:41:13;12.60;99.90
60868;DHT22;46702;48.370;10.794;2022-10-16T04:43:39;12.50;99.90
60868;DHT22;46702;48.370;10.794;2022-10-16T04:46:05;12.40;99.90
60868;DHT22;46702;48.370;10.794;2022-10-16T04:48:31;12.50;99.90
60868;DHT22;46702;48.370;10.794;2022-10-16T04:50:57;12.50;99.90
60868;DHT22;46702;48.370;10.794;2022-10-16T04:53:23;12.30;99.90
60868;DHT22;46702;48.370;10.794;2022-10-16T04:55:49;12.40;99.90
60868;DHT22;46702;48.370;10.794;2022-10-16T04:58:16;12.30;99.90
60868;DHT22;46702;48.370;10.794;2022-10-16T05:00:41;12.30;99.90
60868;DHT22;46702;48.370;10.794;2022-10-16T05:03:07;12.30;99.90
60868;DHT22;46702;48.370;10.794;2022-10-16T05:05:35;12.40;99.90
60868;DHT22;46702;48.370;10.794;2022-10-16T05:08:01;12.40;99.90
60868;DHT22;46702;48.370;10.794;2022-10-16T05:10:28;12.40;99.90
60868;DHT22;46702;48.370;10.794;2022-10-16T05:12:53;12.30;99.90
60868;DHT22;46702;48.370;10.794;2022-10-16T05:15:19;12.10;99.90
60868;DHT22;46702;48.370;10.794;2022-10-16T05:17:45;12.10;99.90
60868;DHT22;46702;48.370;10.794;2022-10-16T05:20:11;12.10;99.90
60868;DHT22;46702;48.370;10.794;2022-10-16T05:22:37;12.00;99.90
60868;DHT22;46702;48.370;10.794;2022-10-16T05:25:03;12.00;99.90
60868;DHT22;46702;48.370;10.794;2022-10-16T05:27:29;12.00;99.90
60868;DHT22;46702;48.370;10.794;2022-10-16T05:29:55;12.00;99.90
60868;DHT22;46702;48.370;10.794;2022-10-16T05:32:21;12.10;99.90
60868;DHT22;46702;48.370;10.794;2022-10-16T05:34:47;12.10;99.90
60868;DHT22;46702;48.370;10.794;2022-10-16T05:37:13;11.80;99.90
60868;DHT22;46702;48.370;10.794;2022-10-16T05:39:39;11.70;99.90
60868;DHT22;46702;48.370;10.794;2022-10-16T05:42:05;11.70;99.90
60868;DHT22;46702;48.370;10.794;2022-10-16T05:44:31;11.60;99.90
60868;DHT22;46702;48.370;10.794;2022-10-16T05:46:57;11.50;99.90
60868;DHT22;46702;48.370;10.794;2022-10-16T05:49:24;11.50;99.90
60868;DHT22;46702;48.370;10.794;2022-10-16T05:51:50;11.50;99.90
60868;DHT22;46702;48.370;10.794;2022-10-16T05:54:16;11.50;99.90
60868;DHT22;46702;48.370;10.794;2022-10-16T05:56:42;11.60;99.90
60868;DHT22;46702;48.370;10.794;2022-10-16T05:59:09;11.70;99.90
60868;DHT22;46702;48.370;10.794;2022-10-16T06:01:36;11.60;99.90
60868;DHT22;46702;48.370;10.794;2022-10-16T06:04:02;11.50;99.90
60868;DHT22;46702;48.370;10.794;2022-10-16T06:06:29;11.50;99.90
60868;DHT22;46702;48.370;10.794;2022-10-16T06:08:57;11.50;99.90
60868;DHT22;46702;48.370;10.794;2022-10-16T06:11:26;11.60;99.90
60868;DHT22;46702;48.370;10.794;2022-10-16T06:13:55;11.70;99.90
60868;DHT22;46702;48.370;10.794;2022-10-16T06:16:23;11.80;99.90
60868;DHT22;46702;48.370;10.794;2022-10-16T06:18:51;11.80;99.90
60868;DHT22;46702;48.370;10.794;2022-10-16T06:21:20;11.90;99.90
60868;DHT22;46702;48.370;10.794;2022-10-16T06:23:46;11.90;99.90
60868;DHT22;46702;48.370;10.794;2022-10-16T06:26:18;11.90;99.90
60868;DHT22;46702;48.370;10.794;2022-10-16T06:28:46;11.90;99.90
60868;DHT22;46702;48.370;10.794;2022-10-16T06:31:13;11.80;99.90
60868;DHT22;46702;48.370;10.794;2022-10-16T06:33:42;11.70;99.90
60868;DHT22;46702;48.370;10.794;2022-10-16T06:36:12;11.70;99.90
60868;DHT22;46702;48.370;10.794;2022-10-16T06:38:39;11.80;99.90
60868;DHT22;46702;48.370;10.794;2022-10-16T06:41:07;11.80;99.90
60868;DHT22;46702;48.370;10.794;2022-10-16T06:43:34;11.90;99.90
60868;DHT22;46702;48.370;10.794;2022-10-16T06:46:06;12.00;99.90
60868;DHT22;46702;48.370;10.794;2022-10-16T06:48:34;12.10;99.90
60868;DHT22;46702;48.370;10.794;2022-10-16T06:51:03;12.10;99.90
60868;DHT22;46702;48.370;10.794;2022-10-16T06:53:35;12.10;99.90
60868;DHT22;46702;48.370;10.794;2022-10-16T06:56:13;12.20;99.90
60868;DHT22;46702;48.370;10.794;2022-10-16T06:58:49;12.30;99.90
60868;DHT22;46702;48.370;10.794;2022-10-16T07:01:17;12.40;99.90
60868;DHT22;46702;48.370;10.794;2022-10-16T07:03:45;12.50;99.90
60868;DHT22;46702;48.370;10.794;2022-10-16T07:06:16;12.50;99.90
60868;DHT22;46702;48.370;10.794;2022-10-16T07:08:46;12.60;99.90
60868;DHT22;46702;48.370;10.794;2022-10-16T07:11:16;12.70;99.90
60868;DHT22;46702;48.370;10.794;2022-10-16T07:13:44;12.80;99.90
60868;DHT22;46702;48.370;10.794;2022-10-16T07:16:19;12.90;99.90
60868;DHT22;46702;48.370;10.794;2022-10-16T07:18:46;13.10;99.90
60868;DHT22;46702;48.370;10.794;2022-10-16T07:21:16;13.20;99.90
60868;DHT22;46702;48.370;10.794;2022-10-16T07:23:43;13.30;99.90
60868;DHT22;46702;48.370;10.794;2022-10-16T07:26:10;13.50;99.90
60868;DHT22;46702;48.370;10.794;2022-10-16T07:28:38;13.50;99.90
60868;DHT22;46702;48.370;10.794;2022-10-16T07:31:08;13.70;99.90
60868;DHT22;46702;48.370;10.794;2022-10-16T07:33:38;13.70;99.90
60868;DHT22;46702;48.370;10.794;2022-10-16T07:36:06;13.80;99.90
60868;DHT22;46702;48.370;10.794;2022-10-16T07:38:32;13.90;99.90
60868;DHT22;46702;48.370;10.794;2022-10-16T07:40:59;13.90;99.90
60868;DHT22;46702;48.370;10.794;2022-10-16T07:43:27;14.00;99.90
60868;DHT22;46702;48.370;10.794;2022-10-16T07:45:54;14.10;99.90
60868;DHT22;46702;48.370;10.794;2022-10-16T07:48:21;14.20;99.90
60868;DHT22;46702;48.370;10.794;2022-10-16T07:50:48;14.20;99.90
60868;DHT22;46702;48.370;10.794;2022-10-16T07:53:15;14.30;99.90
60868;DHT22;46702;48.370;10.794;2022-10-16T07:55:41;14.50;99.90
60868;DHT22;46702;48.370;10.794;2022-10-16T07:58:06;14.60;99.90
60868;DHT22;46702;48.370;10.794;2022-10-16T08:00:32;14.80;99.90
60868;DHT22;46702;48.370;10.794;2022-10-16T08:02:59;14.90;99.90
60868;DHT22;46702;48.370;10.794;2022-10-16T08:05:27;15.10;99.90
60868;DHT22;46702;48.370;10.794;2022-10-16T08:07:53;15.30;99.90
60868;DHT22;46702;48.370;10.794;2022-10-16T08:10:20;15.40;99.90
60868;DHT22;46702;48.370;10.794;2022-10-16T08:12:46;15.50;99.90
60868;DHT22;46702;48.370;10.794;2022-10-16T08:15:12;15.60;99.90
60868;DHT22;46702;48.370;10.794;2022-10-16T08:17:38;15.70;99.90
60868;DHT22;46702;48.370;10.794;2022-10-16T08:20:04;15.90;99.90
60868;DHT22;46702;48.370;10.794;2022-10-16T08:22:30;16.00;99.90
60868;DHT22;46702;48.370;10.794;2022-10-16T08:24:56;16.00;99.90
60868;DHT22;46702;48.370;10.794;2022-10-16T08:27:21;16.20;99.90
60868;DHT22;46702;48.370;10.794;2022-10-16T08:29:49;16.50;99.90
60868;DHT22;46702;48.370;10.794;2022-10-16T08:32:15;16.80;99.90
60868;DHT22;46702;48.370;10.794;2022-10-16T08:34:41;17.10;99.90
60868;DHT22;46702;48.370;10.794;2022-10-16T08:37:07;17.50;99.90
60868;DHT22;46702;48.370;10.794;2022-10-16T08:39:36;17.80;99.90
60868;DHT22;46702;48.370;10.794;2022-10-16T08:42:11;18.10;99.90
60868;DHT22;46702;48.370;10.794;2022-10-16T08:50:28;18.50;99.90
60868;DHT22;46702;48.370;10.794;2022-10-16T08:52:55;18.80;99.90
60868;DHT22;46702;48.370;10.794;2022-10-16T08:55:41;19.00;99.90
60868;DHT22;46702;48.370;10.794;2022-10-16T08:58:13;19.10;99.90
60868;DHT22;46702;48.370;10.794;2022-10-16T09:00:40;19.20;99.90
60868;DHT22;46702;48.370;10.794;2022-10-16T09:19:44;19.90;99.90
60868;DHT22;46702;48.370;10.794;2022-10-16T09:22:14;20.20;99.90
60868;DHT22;46702;48.370;10.794;2022-10-16T09:24:41;20.30;99.80
60868;DHT22;46702;48.370;10.794;2022-10-16T09:27:13;20.20;96.40
60868;DHT22;46702;48.370;10.794;2022-10-16T09:29:40;20.10;99.60
60868;DHT22;46702;48.370;10.794;2022-10-16T09:32:19;20.10;98.50
60868;DHT22;46702;48.370;10.794;2022-10-16T09:34:50;19.90;98.00
60868;DHT22;46702;48.370;10.794;2022-10-16T09:37:21;19.90;98.90
60868;DHT22;46702;48.370;10.794;2022-10-16T09:39:50;19.90;99.90
60868;DHT22;46702;48.370;10.794;2022-10-16T09:42:30;19.90;98.10
60868;DHT22;46702;48.370;10.794;2022-10-16T09:44:57;19.90;99.90
60868;DHT22;46702;48.370;10.794;2022-10-16T09:47:28;20.00;99.90
60868;DHT22;46702;48.370;10.794;2022-10-16T09:50:03;20.10;99.90
60868;DHT22;46702;48.370;10.794;2022-10-16T09:52:32;20.20;96.20
60868;DHT22;46702;48.370;10.794;2022-10-16T09:55:13;20.10;98.50
60868;DHT22;46702;48.370;10.794;2022-10-16T09:57:53;20.20;98.70
60868;DHT22;46702;48.370;10.794;2022-10-16T10:00:20;20.10;97.10
60868;DHT22;46702;48.370;10.794;2022-10-16T10:02:46;20.00;97.30
60868;DHT22;46702;48.370;10.794;2022-10-16T10:05:32;20.00;99.60
60868;DHT22;46702;48.370;10.794;2022-10-16T10:08:02;20.10;99.80
60868;DHT22;46702;48.370;10.794;2022-10-16T10:10:33;20.20;98.90
60868;DHT22;46702;48.370;10.794;2022-10-16T10:12:59;20.30;99.90
60868;DHT22;46702;48.370;10.794;2022-10-16T10:15:27;20.40;98.40
60868;DHT22;46702;48.370;10.794;2022-10-16T10:17:57;20.50;97.70
60868;DHT22;46702;48.370;10.794;2022-10-16T10:22:50;20.50;95.10
60868;DHT22;46702;48.370;10.794;2022-10-16T10:25:49;20.60;96.10
60868;DHT22;46702;48.370;10.794;2022-10-16T10:31:19;20.60;96.20
60868;DHT22;46702;48.370;10.794;2022-10-16T10:33:55;20.70;98.40
60868;DHT22;46702;48.370;10.794;2022-10-16T10:39:00;20.80;98.30
60868;DHT22;46702;48.370;10.794;2022-10-16T10:47:34;21.00;94.90
60868;DHT22;46702;48.370;10.794;2022-10-16T10:53:10;21.00;91.70
60868;DHT22;46702;48.370;10.794;2022-10-16T10:55:54;21.00;94.10
60868;DHT22;46702;48.370;10.794;2022-10-16T11:01:16;21.10;96.70
60868;DHT22;46702;48.370;10.794;2022-10-16T11:08:53;21.10;92.80
60868;DHT22;46702;48.370;10.794;2022-10-16T11:11:28;21.10;91.30
60868;DHT22;46702;48.370;10.794;2022-10-16T11:14:20;21.10;96.50
60868;DHT22;46702;48.370;10.794;2022-10-16T11:22:04;21.20;94.60
60868;DHT22;46702;48.370;10.794;2022-10-16T11:27:35;21.40;93.10
60868;DHT22;46702;48.370;10.794;2022-10-16T11:30:05;21.30;92.50
60868;DHT22;46702;48.370;10.794;2022-10-16T11:32:36;21.40;95.80
60868;DHT22;46702;48.370;10.794;2022-10-16T11:35:17;21.50;92.40
60868;DHT22;46702;48.370;10.794;2022-10-16T11:37:46;21.40;90.00
60868;DHT22;46702;48.370;10.794;2022-10-16T11:40:25;21.30;91.40
60868;DHT22;46702;48.370;10.794;2022-10-16T11:43:12;21.20;93.80
60868;DHT22;46702;48.370;10.794;2022-10-16T11:45:43;21.30;97.30
60868;DHT22;46702;48.370;10.794;2022-10-16T11:48:30;21.30;90.50
60868;DHT22;46702;48.370;10.794;2022-10-16T11:51:09;21.30;94.20
60868;DHT22;46702;48.370;10.794;2022-10-16T11:54:28;21.30;87.70
60868;DHT22;46702;48.370;10.794;2022-10-16T11:56:32;21.30;89.20
60868;DHT22;46702;48.370;10.794;2022-10-16T11:59:29;21.40;91.30
60868;DHT22;46702;48.370;10.794;2022-10-16T12:07:38;21.70;92.20
60868;DHT22;46702;48.370;10.794;2022-10-16T12:10:31;21.60;87.50
60868;DHT22;46702;48.370;10.794;2022-10-16T12:13:04;21.70;92.30
60868;DHT22;46702;48.370;10.794;2022-10-16T12:15:32;21.70;90.20
60868;DHT22;46702;48.370;10.794;2022-10-16T12:17:58;21.70;91.00
60868;DHT22;46702;48.370;10.794;2022-10-16T12:20:31;21.70;87.30
60868;DHT22;46702;48.370;10.794;2022-10-16T12:23:07;21.60;90.10
60868;DHT22;46702;48.370;10.794;2022-10-16T12:25:42;21.60;87.30
60868;DHT22;46702;48.370;10.794;2022-10-16T12:30:42;21.50;90.50
60868;DHT22;46702;48.370;10.794;2022-10-16T12:33:36;21.50;93.60
60868;DHT22;46702;48.370;10.794;2022-10-16T12:36:09;21.60;93.20
60868;DHT22;46702;48.370;10.794;2022-10-16T12:41:10;21.70;90.90
60868;DHT22;46702;48.370;10.794;2022-10-16T12:43:42;21.90;92.60
60868;DHT22;46702;48.370;10.794;2022-10-16T12:48:35;21.90;90.10
60868;DHT22;46702;48.370;10.794;2022-10-16T12:51:11;22.00;70.50
60868;DHT22;46702;48.370;10.794;2022-10-16T12:53:38;22.00;77.30
60868;DHT22;46702;48.370;10.794;2022-10-16T12:56:27;21.90;74.60
60868;DHT22;46702;48.370;10.794;2022-10-16T13:01:53;22.10;75.90
60868;DHT22;46702;48.370;10.794;2022-10-16T13:04:35;22.20;71.20
60868;DHT22;46702;48.370;10.794;2022-10-16T13:20:31;21.90;74.90
60868;DHT22;46702;48.370;10.794;2022-10-16T13:28:13;22.00;70.90
60868;DHT22;46702;48.370;10.794;2022-10-16T13:31:00;22.00;73.80
60868;DHT22;46702;48.370;10.794;2022-10-16T13:35:54;22.30;77.40
60868;DHT22;46702;48.370;10.794;2022-10-16T13:38:22;22.40;75.50
60868;DHT22;46702;48.370;10.794;2022-10-16T13:40:56;22.50;76.90
60868;DHT22;46702;48.370;10.794;2022-10-16T13:43:33;22.60;70.80
60868;DHT22;46702;48.370;10.794;2022-10-16T13:46:05;22.60;68.50
60868;DHT22;46702;48.370;10.794;2022-10-16T13:48:32;22.70;71.20
60868;DHT22;46702;48.370;10.794;2022-10-16T13:53:31;22.80;65.70
60868;DHT22;46702;48.370;10.794;2022-10-16T13:55:57;22.80;72.00
60868;DHT22;46702;48.370;10.794;2022-10-16T13:58:25;22.70;64.40
60868;DHT22;46702;48.370;10.794;2022-10-16T14:00:56;22.70;63.90
60868;DHT22;46702;48.370;10.794;2022-10-16T14:03:23;22.70;63.50
60868;DHT22;46702;48.370;10.794;2022-10-16T14:05:55;22.60;68.30
60868;DHT22;46702;48.370;10.794;2022-10-16T14:08:23;22.70;70.30
60868;DHT22;46702;48.370;10.794;2022-10-16T14:10:50;22.70;68.20
60868;DHT22;46702;48.370;10.794;2022-10-16T14:13:31;22.70;76.80
60868;DHT22;46702;48.370;10.794;2022-10-16T14:16:05;22.60;74.80
60868;DHT22;46702;48.370;10.794;2022-10-16T14:18:31;22.60;69.40
60868;DHT22;46702;48.370;10.794;2022-10-16T14:21:03;22.50;75.60
60868;DHT22;46702;48.370;10.794;2022-10-16T14:23:35;22.50;72.10
60868;DHT22;46702;48.370;10.794;2022-10-16T14:28:37;22.50;72.80
60868;DHT22;46702;48.370;10.794;2022-10-16T14:33:42;22.50;73.80
60868;DHT22;46702;48.370;10.794;2022-10-16T14:36:13;22.50;79.40
60868;DHT22;46702;48.370;10.794;2022-10-16T14:38:42;22.40;75.10
60868;DHT22;46702;48.370;10.794;2022-10-16T14:41:09;22.40;82.70
60868;DHT22;46702;48.370;10.794;2022-10-16T14:43:37;22.40;84.20
60868;DHT22;46702;48.370;10.794;2022-10-16T14:46:09;22.40;78.80
60868;DHT22;46702;48.370;10.794;2022-10-16T14:48:41;22.30;79.60
60868;DHT22;46702;48.370;10.794;2022-10-16T14:51:13;22.30;86.30
60868;DHT22;46702;48.370;10.794;2022-10-16T14:53:40;22.20;84.20
60868;DHT22;46702;48.370;10.794;2022-10-16T14:56:09;22.20;85.30
60868;DHT22;46702;48.370;10.794;2022-10-16T14:58:39;22.20;89.20
60868;DHT22;46702;48.370;10.794;2022-10-16T15:01:05;22.20;90.30
60868;DHT22;46702;48.370;10.794;2022-10-16T15:03:33;22.20;92.10
60868;DHT22;46702;48.370;10.794;2022-10-16T15:05:59;22.10;93.50
60868;DHT22;46702;48.370;10.794;2022-10-16T15:08:25;22.10;94.00
60868;DHT22;46702;48.370;10.794;2022-10-16T15:10:51;22.00;94.70
60868;DHT22;46702;48.370;10.794;2022-10-16T15:13:16;21.90;95.20
60868;DHT22;46702;48.370;10.794;2022-10-16T15:15:46;21.90;95.10
60868;DHT22;46702;48.370;10.794;2022-10-16T15:18:13;21.80;95.90
60868;DHT22;46702;48.370;10.794;2022-10-16T15:20:40;21.70;96.80
60868;DHT22;46702;48.370;10.794;2022-10-16T15:23:18;21.70;97.40
60868;DHT22;46702;48.370;10.794;2022-10-16T15:28:11;21.50;96.30
60868;DHT22;46702;48.370;10.794;2022-10-16T15:30:38;21.50;98.00
60868;DHT22;46702;48.370;10.794;2022-10-16T15:33:05;21.40;98.30
60868;DHT22;46702;48.370;10.794;2022-10-16T15:35:34;21.40;98.90
60868;DHT22;46702;48.370;10.794;2022-10-16T15:38:00;21.30;98.40
60868;DHT22;46702;48.370;10.794;2022-10-16T15:40:26;21.30;97.80
60868;DHT22;46702;48.370;10.794;2022-10-16T15:42:51;21.20;99.50
60868;DHT22;46702;48.370;10.794;2022-10-16T15:45:17;21.20;99.60
60868;DHT22;46702;48.370;10.794;2022-10-16T15:47:45;21.20;99.40
60868;DHT22;46702;48.370;10.794;2022-10-16T15:50:12;21.10;99.90
60868;DHT22;46702;48.370;10.794;2022-10-16T15:52:39;21.00;99.90
60868;DHT22;46702;48.370;10.794;2022-10-16T15:55:07;21.00;99.90
60868;DHT22;46702;48.370;10.794;2022-10-16T15:57:33;20.90;99.90
60868;DHT22;46702;48.370;10.794;2022-10-16T15:59:58;20.90;99.90
60868;DHT22;46702;48.370;10.794;2022-10-16T16:02:24;20.90;99.90
60868;DHT22;46702;48.370;10.794;2022-10-16T16:04:50;20.80;99.90
60868;DHT22;46702;48.370;10.794;2022-10-16T16:07:15;20.70;99.90
60868;DHT22;46702;48.370;10.794;2022-10-16T16:09:41;20.50;99.90
60868;DHT22;46702;48.370;10.794;2022-10-16T16:12:07;20.50;99.90
60868;DHT22;46702;48.370;10.794;2022-10-16T16:14:32;20.40;99.90
60868;DHT22;46702;48.370;10.794;2022-10-16T16:16:58;20.30;99.90
60868;DHT22;46702;48.370;10.794;2022-10-16T16:19:24;20.30;99.90
60868;DHT22;46702;48.370;10.794;2022-10-16T16:21:50;20.30;99.90
60868;DHT22;46702;48.370;10.794;2022-10-16T16:24:16;20.20;99.90
60868;DHT22;46702;48.370;10.794;2022-10-16T16:26:42;20.20;99.90
60868;DHT22;46702;48.370;10.794;2022-10-16T16:29:13;20.10;99.90
60868;DHT22;46702;48.370;10.794;2022-10-16T16:31:41;20.00;99.90
60868;DHT22;46702;48.370;10.794;2022-10-16T16:34:06;19.90;99.90
60868;DHT22;46702;48.370;10.794;2022-10-16T16:36:33;19.90;99.90
60868;DHT22;46702;48.370;10.794;2022-10-16T16:38:59;19.80;99.90
60868;DHT22;46702;48.370;10.794;2022-10-16T16:41:27;19.70;99.90
60868;DHT22;46702;48.370;10.794;2022-10-16T16:43:53;19.60;99.90
60868;DHT22;46702;48.370;10.794;2022-10-16T16:46:20;19.70;99.90
60868;DHT22;46702;48.370;10.794;2022-10-16T16:48:46;19.60;99.90
60868;DHT22;46702;48.370;10.794;2022-10-16T16:51:16;19.60;99.90
60868;DHT22;46702;48.370;10.794;2022-10-16T16:53:46;19.40;99.90
60868;DHT22;46702;48.370;10.794;2022-10-16T16:56:12;19.40;99.90
60868;DHT22;46702;48.370;10.794;2022-10-16T16:58:38;19.30;99.90
60868;DHT22;46702;48.370;10.794;2022-10-16T17:01:05;19.20;99.90
60868;DHT22;46702;48.370;10.794;2022-10-16T17:03:33;19.00;99.90
60868;DHT22;46702;48.370;10.794;2022-10-16T17:06:00;19.00;99.90
60868;DHT22;46702;48.370;10.794;2022-10-16T17:08:26;19.00;99.90
60868;DHT22;46702;48.370;10.794;2022-10-16T17:10:52;19.00;99.90
60868;DHT22;46702;48.370;10.794;2022-10-16T17:13:22;18.80;99.90
60868;DHT22;46702;48.370;10.794;2022-10-16T17:15:49;18.80;99.90
60868;DHT22;46702;48.370;10.794;2022-10-16T17:18:15;18.80;99.90
60868;DHT22;46702;48.370;10.794;2022-10-16T17:20:42;18.70;99.90
60868;DHT22;46702;48.370;10.794;2022-10-16T17:23:10;18.60;99.90